createdAt,value
2019-03-13T00:00:57.048Z,6.45
2019-03-13T00:04:02.220Z,6.35
2019-03-13T00:07:07.321Z,6.41
2019-03-13T00:10:12.794Z,6.39
2019-03-13T00:13:17.927Z,6.48
2019-03-13T00:16:23.129Z,6.61
2019-03-13T00:19:28.188Z,6.82
2019-03-13T00:22:33.350Z,6.94
2019-03-13T00:25:38.472Z,7.44
2019-03-13T00:28:43.800Z,7.70
2019-03-13T00:31:48.966Z,7.94
2019-03-13T00:34:54.162Z,7.97
2019-03-13T00:37:59.327Z,8.13
2019-03-13T00:41:04.493Z,8.12
2019-03-13T00:44:09.682Z,7.96
2019-03-13T00:47:14.834Z,7.83
2019-03-13T00:50:30.752Z,7.66
2019-03-13T00:53:35.920Z,7.06
2019-03-13T00:56:41.053Z,6.20
2019-03-13T00:59:46.150Z,5.76
2019-03-13T01:02:51.275Z,5.60
2019-03-13T01:06:01.225Z,5.54
2019-03-13T01:09:07.804Z,5.50
2019-03-13T01:12:13.107Z,5.46
2019-03-13T01:15:18.213Z,5.40
2019-03-13T01:18:23.310Z,5.44
2019-03-13T01:21:28.419Z,5.32
2019-03-13T01:24:34.632Z,5.47
2019-03-13T01:27:40.840Z,5.39
2019-03-13T01:31:00.867Z,5.44
2019-03-13T01:34:23.571Z,5.41
2019-03-13T01:37:28.671Z,5.37
2019-03-13T01:40:33.959Z,5.49
2019-03-13T01:43:39.124Z,5.62
2019-03-13T01:46:44.250Z,5.63
2019-03-13T01:49:49.368Z,5.58
2019-03-13T01:52:54.457Z,5.51
2019-03-13T01:55:59.595Z,5.46
2019-03-13T01:59:04.761Z,5.52
2019-03-13T02:02:09.908Z,5.49
2019-03-13T02:05:15.571Z,5.64
2019-03-13T02:08:21.684Z,5.53
2019-03-13T02:11:26.801Z,5.58
2019-03-13T02:14:31.952Z,5.61
2019-03-13T02:17:37.134Z,5.62
2019-03-13T02:20:42.277Z,5.58
2019-03-13T02:23:47.441Z,5.55
2019-03-13T02:26:52.587Z,5.56
2019-03-13T02:29:57.763Z,5.49
2019-03-13T02:33:02.963Z,5.60
2019-03-13T02:36:08.101Z,5.50
2019-03-13T02:39:13.217Z,5.50
2019-03-13T02:42:18.441Z,5.33
2019-03-13T02:45:23.668Z,5.30
2019-03-13T02:48:28.742Z,5.39
2019-03-13T02:51:33.898Z,5.20
2019-03-13T02:54:39.072Z,4.94
2019-03-13T02:57:44.226Z,4.98
2019-03-13T03:01:10.342Z,4.89
2019-03-13T03:04:15.548Z,4.81
2019-03-13T03:07:20.695Z,4.79
2019-03-13T03:10:25.738Z,4.77
2019-03-13T03:13:30.829Z,4.48
2019-03-13T03:16:35.965Z,4.40
2019-03-13T03:19:42.109Z,4.28
2019-03-13T03:22:47.397Z,4.36
2019-03-13T03:25:52.570Z,4.32
2019-03-13T03:28:57.678Z,4.27
2019-03-13T03:32:02.869Z,4.49
2019-03-13T03:35:08.002Z,4.53
2019-03-13T03:38:13.123Z,4.50
2019-03-13T03:41:18.272Z,4.44
2019-03-13T03:44:23.383Z,4.54
2019-03-13T03:47:28.590Z,4.61
2019-03-13T03:50:33.738Z,4.67
2019-03-13T03:53:38.874Z,4.76
2019-03-13T03:56:43.942Z,4.76
2019-03-13T03:59:49.280Z,4.79
2019-03-13T04:02:54.331Z,4.80
2019-03-13T04:05:59.541Z,4.85
2019-03-13T04:09:05.928Z,4.93
2019-03-13T04:12:11.373Z,4.95
2019-03-13T04:15:16.713Z,5.01
2019-03-13T04:18:21.825Z,4.99
2019-03-13T04:21:26.929Z,4.98
2019-03-13T04:24:32.043Z,5.00
2019-03-13T04:27:37.134Z,5.06
2019-03-13T04:30:42.270Z,5.01
2019-03-13T04:33:47.389Z,5.10
2019-03-13T04:36:52.565Z,4.93
2019-03-13T04:39:57.700Z,4.88
2019-03-13T04:43:02.851Z,4.81
2019-03-13T04:46:07.945Z,4.95
2019-03-13T04:49:13.063Z,4.85
2019-03-13T04:52:18.331Z,4.74
2019-03-13T04:55:23.478Z,4.56
2019-03-13T04:58:28.604Z,4.58
2019-03-13T05:01:33.749Z,4.74
2019-03-13T05:04:38.839Z,4.67
2019-03-13T05:07:43.935Z,4.57
2019-03-13T05:10:48.991Z,4.68
2019-03-13T05:13:54.126Z,4.71
2019-03-13T05:16:59.263Z,4.73
2019-03-13T05:20:04.384Z,4.83
2019-03-13T05:23:09.475Z,4.80
2019-03-13T05:26:14.616Z,4.83
2019-03-13T05:29:19.785Z,4.78
2019-03-13T05:32:24.863Z,4.86
2019-03-13T05:35:29.968Z,4.92
2019-03-13T05:38:35.040Z,4.94
2019-03-13T05:41:40.255Z,4.89
2019-03-13T05:44:45.466Z,4.97
2019-03-13T05:47:50.657Z,5.21
2019-03-13T05:50:55.796Z,5.01
2019-03-13T05:54:00.971Z,5.09
2019-03-13T05:57:06.134Z,5.06
2019-03-13T06:00:12.265Z,5.31
2019-03-13T06:03:17.518Z,5.24
2019-03-13T06:06:22.748Z,5.24
2019-03-13T06:09:27.924Z,5.29
2019-03-13T06:12:33.080Z,5.42
2019-03-13T06:15:38.218Z,5.27
2019-03-13T06:18:45.451Z,5.24
2019-03-13T06:21:50.230Z,5.41
2019-03-13T06:24:55.533Z,5.34
2019-03-13T06:28:00.756Z,5.50
2019-03-13T06:31:05.930Z,5.61
2019-03-13T06:34:11.623Z,5.80
2019-03-13T06:37:16.801Z,5.93
2019-03-13T06:40:21.981Z,5.96
2019-03-13T06:43:27.042Z,5.90
2019-03-13T06:46:32.132Z,6.04
2019-03-13T06:49:37.262Z,6.03
2019-03-13T06:52:42.541Z,5.96
2019-03-13T06:55:49.324Z,6.22
2019-03-13T06:59:02.708Z,6.61
2019-03-13T07:02:30.099Z,6.72
2019-03-13T07:06:03.002Z,6.58
2019-03-13T07:09:39.701Z,6.57
2019-03-13T07:13:03.184Z,6.66
2019-03-13T07:16:36.332Z,6.68
2019-03-13T07:19:59.290Z,6.41
2019-03-13T07:23:32.467Z,6.23
2019-03-13T07:26:42.893Z,5.94
2019-03-13T07:29:56.732Z,5.82
2019-03-13T07:33:11.907Z,5.79
2019-03-13T07:36:51.263Z,5.20
2019-03-13T07:40:14.890Z,4.72
2019-03-13T07:43:37.649Z,4.86
2019-03-13T07:46:51.555Z,5.04
2019-03-13T07:50:06.173Z,5.19
2019-03-13T07:53:29.270Z,4.86
2019-03-13T07:56:59.676Z,4.53
2019-03-13T08:00:14.878Z,4.50
2019-03-13T08:03:34.626Z,4.43
2019-03-13T08:07:01.475Z,4.67
2019-03-13T08:10:29.598Z,5.27
2019-03-13T08:13:56.477Z,5.80
2019-03-13T08:17:26.662Z,6.29
2019-03-13T08:20:49.532Z,6.57
2019-03-13T08:24:13.151Z,7.20
2019-03-13T08:27:36.022Z,7.43
2019-03-13T08:31:05.977Z,7.86
2019-03-13T08:34:23.466Z,8.05
2019-03-13T08:37:47.536Z,7.97
2019-03-13T08:41:23.810Z,8.04
2019-03-13T08:44:45.514Z,8.42
2019-03-13T08:48:00.758Z,8.61
2019-03-13T08:51:25.794Z,8.35
2019-03-13T08:54:40.394Z,8.14
2019-03-13T08:57:54.001Z,8.39
2019-03-13T09:01:24.268Z,8.69
2019-03-13T09:04:48.374Z,8.68
2019-03-13T09:08:15.553Z,8.34
2019-03-13T09:11:36.883Z,8.29
2019-03-13T09:15:00.035Z,8.44
2019-03-13T09:18:14.598Z,8.33
2019-03-13T09:21:44.755Z,8.38
2019-03-13T09:25:12.416Z,8.36
2019-03-13T09:28:29.525Z,8.09
2019-03-13T09:31:52.757Z,7.84
2019-03-13T09:35:20.599Z,7.70
2019-03-13T09:38:50.915Z,7.67
2019-03-13T09:42:15.585Z,7.86
2019-03-13T09:45:34.547Z,7.77
2019-03-13T09:49:03.620Z,7.89
2019-03-13T09:52:17.772Z,7.78
2019-03-13T09:55:41.881Z,7.86
2019-03-13T09:59:04.662Z,7.67
2019-03-13T10:02:27.432Z,7.98
2019-03-13T10:05:57.346Z,7.98
2019-03-13T10:09:13.345Z,8.14
2019-03-13T10:12:46.412Z,8.20
2019-03-13T10:16:19.641Z,7.97
2019-03-13T10:19:49.567Z,7.81
2019-03-13T10:23:08.067Z,7.93
2019-03-13T10:26:41.543Z,8.00
2019-03-13T10:29:58.779Z,8.11
2019-03-13T10:33:26.403Z,8.58
2019-03-13T10:36:53.185Z,8.55
2019-03-13T10:40:35.802Z,8.52
2019-03-13T10:43:57.161Z,8.52
2019-03-13T10:47:21.324Z,8.42
2019-03-13T10:50:54.751Z,7.96
2019-03-13T10:54:18.890Z,7.86
2019-03-13T10:57:42.869Z,7.15
2019-03-13T11:01:19.420Z,7.32
2019-03-13T11:04:42.138Z,7.50
2019-03-13T11:08:05.048Z,8.29
2019-03-13T11:11:29.170Z,8.51
2019-03-13T11:14:56.224Z,8.44
2019-03-13T11:18:17.934Z,8.63
2019-03-13T11:21:43.910Z,8.67
2019-03-13T11:25:11.052Z,8.54
2019-03-13T11:28:28.290Z,8.46
2019-03-13T11:31:50.631Z,8.72
2019-03-13T11:35:20.632Z,8.64
2019-03-13T11:39:00.321Z,9.31
2019-03-13T11:42:21.995Z,10.16
2019-03-13T11:45:45.156Z,10.13
2019-03-13T11:49:21.324Z,9.65
2019-03-13T11:52:36.226Z,9.67
2019-03-13T11:56:03.171Z,9.62
2019-03-13T11:59:25.910Z,9.76
2019-03-13T12:02:58.716Z,9.71
2019-03-13T12:06:25.908Z,9.90
2019-03-13T12:09:48.861Z,9.69
2019-03-13T12:13:04.141Z,10.14
2019-03-13T12:16:31.570Z,9.93
2019-03-13T12:20:01.801Z,9.77
2019-03-13T12:23:41.531Z,9.80
2019-03-13T12:27:03.656Z,9.78
2019-03-13T12:30:29.995Z,10.12
2019-03-13T12:33:46.953Z,9.81
2019-03-13T12:36:59.257Z,9.98
2019-03-13T12:40:19.891Z,9.92
2019-03-13T12:43:42.685Z,9.84
2019-03-13T12:47:09.904Z,9.65
2019-03-13T12:50:24.340Z,9.44
2019-03-13T12:53:55.271Z,9.21
2019-03-13T12:57:31.454Z,9.27
2019-03-13T13:00:44.534Z,9.00
2019-03-13T13:04:11.915Z,8.95
2019-03-13T13:07:36.003Z,9.26
2019-03-13T13:10:59.097Z,9.24
2019-03-13T13:14:23.198Z,9.49
2019-03-13T13:17:59.671Z,9.48
2019-03-13T13:21:04.776Z,9.27
2019-03-13T13:24:10.107Z,9.12
2019-03-13T13:27:15.242Z,9.24
2019-03-13T13:30:21.663Z,9.15
2019-03-13T13:33:26.842Z,8.76
2019-03-13T13:36:32.055Z,8.65
2019-03-13T13:39:38.251Z,8.50
2019-03-13T13:42:43.402Z,8.56
2019-03-13T13:45:55.554Z,8.55
2019-03-13T13:49:00.753Z,8.53
2019-03-13T13:52:05.862Z,8.40
2019-03-13T13:55:10.983Z,8.44
2019-03-13T13:58:16.184Z,8.43
2019-03-13T14:01:21.261Z,8.37
2019-03-13T14:04:26.616Z,8.59
2019-03-13T14:07:31.837Z,8.62
2019-03-13T14:10:37.032Z,8.90
2019-03-13T14:13:42.124Z,8.78
2019-03-13T14:16:47.288Z,8.71
2019-03-13T14:19:52.461Z,8.79
2019-03-13T14:22:57.610Z,8.63
2019-03-13T14:26:02.799Z,8.39
2019-03-13T14:29:08.335Z,8.38
2019-03-13T14:32:13.549Z,8.21
2019-03-13T14:35:18.657Z,8.06
2019-03-13T14:38:23.816Z,7.97
2019-03-13T14:41:28.953Z,7.92
2019-03-13T14:44:34.212Z,7.89
2019-03-13T14:47:39.353Z,7.75
2019-03-13T14:50:45.690Z,7.68
2019-03-13T14:53:50.824Z,7.67
2019-03-13T14:56:55.972Z,7.81
2019-03-13T15:00:01.119Z,7.72
2019-03-13T15:03:07.531Z,7.64
2019-03-13T15:06:13.668Z,7.65
2019-03-13T15:09:18.760Z,7.47
2019-03-13T15:12:24.004Z,7.26
2019-03-13T15:15:29.146Z,7.20
2019-03-13T15:18:34.320Z,6.93
2019-03-13T15:21:39.438Z,7.02
2019-03-13T15:24:44.669Z,6.72
2019-03-13T15:27:49.929Z,6.65
2019-03-13T15:30:55.173Z,6.69
2019-03-13T15:34:00.345Z,6.65
2019-03-13T15:37:05.495Z,6.57
2019-03-13T15:40:13.506Z,6.56
2019-03-13T15:43:18.781Z,6.58
2019-03-13T15:46:23.893Z,6.56
2019-03-13T15:49:29.102Z,6.56
2019-03-13T15:52:34.208Z,6.42
2019-03-13T15:55:39.461Z,6.30
2019-03-13T15:58:44.544Z,6.17
2019-03-13T16:01:49.639Z,6.05
2019-03-13T16:04:54.766Z,6.06
2019-03-13T16:07:59.944Z,5.97
2019-03-13T16:11:05.388Z,5.96
2019-03-13T16:14:10.499Z,5.90
2019-03-13T16:17:15.624Z,5.98
2019-03-13T16:20:20.938Z,5.92
2019-03-13T16:23:27.505Z,5.94
2019-03-13T16:26:32.724Z,5.96
2019-03-13T16:29:37.825Z,5.96
2019-03-13T16:32:44.174Z,5.82
2019-03-13T16:35:49.641Z,5.94
2019-03-13T16:38:54.815Z,5.99
2019-03-13T16:41:59.954Z,5.96
2019-03-13T16:45:05.924Z,5.79
2019-03-13T16:48:11.004Z,5.81
2019-03-13T16:51:16.076Z,5.84
2019-03-13T16:54:21.276Z,5.71
2019-03-13T16:57:26.396Z,5.62
2019-03-13T17:00:31.612Z,5.71
2019-03-13T17:03:36.850Z,5.54
2019-03-13T17:06:41.967Z,5.44
2019-03-13T17:09:48.222Z,5.45
2019-03-13T17:12:53.525Z,5.33
2019-03-13T17:15:58.677Z,5.37
2019-03-13T17:19:03.827Z,5.27
2019-03-13T17:22:08.994Z,5.28
2019-03-13T17:25:15.536Z,5.17
2019-03-13T17:28:20.827Z,5.28
2019-03-13T17:31:25.957Z,5.38
2019-03-13T17:34:31.122Z,5.29
2019-03-13T17:37:36.334Z,5.29
2019-03-13T17:40:41.515Z,5.27
2019-03-13T17:43:46.663Z,5.33
2019-03-13T17:46:51.809Z,5.23
2019-03-13T17:49:56.947Z,5.19
2019-03-13T17:53:02.127Z,5.27
2019-03-13T17:56:07.258Z,5.24
2019-03-13T17:59:12.428Z,5.27
2019-03-13T18:02:17.640Z,5.27
2019-03-13T18:05:22.762Z,5.28
2019-03-13T18:08:27.972Z,5.23
2019-03-13T18:11:33.547Z,5.30
2019-03-13T18:14:38.802Z,5.38
2019-03-13T18:17:43.958Z,5.32
2019-03-13T18:20:49.182Z,5.34
2019-03-13T18:23:55.254Z,5.58
2019-03-13T18:27:00.419Z,5.64
2019-03-13T18:30:07.109Z,5.69
2019-03-13T18:33:12.447Z,5.69
2019-03-13T18:36:17.699Z,5.75
2019-03-13T18:39:22.870Z,5.78
2019-03-13T18:42:28.089Z,5.83
2019-03-13T18:45:33.253Z,5.86
2019-03-13T18:48:39.395Z,5.97
2019-03-13T18:51:44.543Z,5.97
2019-03-13T18:54:49.725Z,5.96
2019-03-13T18:57:55.084Z,5.98
2019-03-13T19:01:00.309Z,6.13
2019-03-13T19:04:05.596Z,6.06
2019-03-13T19:07:10.868Z,6.00
2019-03-13T19:10:16.230Z,5.94
2019-03-13T19:13:21.543Z,6.02
2019-03-13T19:16:26.772Z,5.98
2019-03-13T19:19:31.931Z,6.09
2019-03-13T19:22:37.100Z,5.92
2019-03-13T19:25:42.386Z,5.96
2019-03-13T19:28:47.533Z,5.96
2019-03-13T19:31:52.733Z,5.98
2019-03-13T19:34:58.955Z,5.92
2019-03-13T19:38:05.471Z,5.83
2019-03-13T19:41:10.862Z,5.94
2019-03-13T19:44:15.972Z,5.75
2019-03-13T19:47:21.227Z,5.79
2019-03-13T19:50:28.159Z,5.95
2019-03-13T19:53:33.300Z,5.69
2019-03-13T19:56:38.430Z,5.68
2019-03-13T19:59:43.688Z,5.74
2019-03-13T20:02:59.558Z,5.68
2019-03-13T20:05:55.981Z,5.62
2019-03-13T20:09:01.312Z,5.60
2019-03-13T20:12:08.157Z,5.62
2019-03-13T20:15:15.247Z,5.52
2019-03-13T20:18:20.523Z,5.68
2019-03-13T20:21:25.762Z,5.84
2019-03-13T20:24:31.049Z,5.68
2019-03-13T20:27:36.387Z,5.46
2019-03-13T20:30:41.599Z,5.44
2019-03-13T20:33:46.739Z,5.45
2019-03-13T20:36:51.940Z,5.43
2019-03-13T20:39:57.108Z,5.42
2019-03-13T20:43:02.819Z,5.52
2019-03-13T20:46:08.184Z,5.50
2019-03-13T20:49:13.301Z,5.55
2019-03-13T20:52:18.447Z,5.42
2019-03-13T20:55:23.889Z,5.39
2019-03-13T20:58:29.106Z,5.23
2019-03-13T21:01:34.292Z,5.13
2019-03-13T21:04:40.524Z,5.27
2019-03-13T21:07:45.744Z,5.09
2019-03-13T21:10:50.979Z,5.31
2019-03-13T21:13:56.179Z,5.36
2019-03-13T21:17:01.492Z,5.18
2019-03-13T21:20:07.407Z,5.20
2019-03-13T21:23:12.760Z,5.16
2019-03-13T21:26:17.959Z,5.27
2019-03-13T21:29:23.189Z,5.26
2019-03-13T21:32:28.288Z,5.33
2019-03-13T21:35:33.553Z,5.31
2019-03-13T21:38:38.751Z,5.49
2019-03-13T21:41:43.931Z,5.35
2019-03-13T21:44:49.105Z,5.30
2019-03-13T21:47:54.158Z,5.36
2019-03-13T21:50:59.392Z,5.26
2019-03-13T21:54:04.672Z,5.30
2019-03-13T21:57:09.769Z,5.21
2019-03-13T22:00:20.005Z,5.23
2019-03-13T22:03:29.641Z,5.20
2019-03-13T22:06:32.462Z,5.14
2019-03-13T22:09:37.616Z,5.18
2019-03-13T22:12:42.698Z,5.09
2019-03-13T22:15:47.884Z,5.13
2019-03-13T22:18:53.089Z,4.89
2019-03-13T22:21:58.232Z,4.86
2019-03-13T22:25:03.382Z,4.82
2019-03-13T22:28:08.476Z,4.72
2019-03-13T22:31:14.820Z,4.69
2019-03-13T22:34:20.033Z,4.68
2019-03-13T22:37:25.356Z,4.68
2019-03-13T22:40:30.460Z,4.49
2019-03-13T22:43:35.618Z,4.42
2019-03-13T22:46:40.681Z,4.33
2019-03-13T22:49:45.865Z,4.31
2019-03-13T22:52:51.009Z,4.42
2019-03-13T22:55:56.104Z,4.27
2019-03-13T22:59:01.252Z,4.27
2019-03-13T23:02:08.061Z,4.33
2019-03-13T23:05:13.311Z,4.19
2019-03-13T23:08:18.600Z,4.31
2019-03-13T23:11:23.787Z,4.30
2019-03-13T23:14:28.903Z,4.36
2019-03-13T23:17:34.005Z,4.34
2019-03-13T23:20:39.149Z,4.35
2019-03-13T23:23:44.274Z,4.36
2019-03-13T23:26:49.391Z,4.30
2019-03-13T23:29:54.557Z,4.30
2019-03-13T23:32:59.652Z,4.22
2019-03-13T23:36:04.748Z,4.17
2019-03-13T23:39:09.955Z,4.25
2019-03-13T23:42:16.347Z,4.11
2019-03-13T23:45:21.571Z,4.31
2019-03-13T23:48:26.620Z,4.26
2019-03-13T23:51:31.794Z,4.33
2019-03-13T23:54:36.894Z,4.02
2019-03-13T23:57:42.115Z,4.13
